Terminal Aerodrome Forecast
Issued by NWS

Home | Current Version | Previous Version | Text Only | Print | Product List | Glossary On
Versions: 1 2 3 4 5 6 7 8 9 10 11 12 13 14 15 16 17 18 19 20 21 22 23 24 25 26 27 28 29 30 31
373
FTUS42 KCAE 181631 AAB
TAFCUB
TAF AMD
KCUB 181631Z 1817/1912 26010G20KT P6SM FEW050
     FM182200 28006KT P6SM SCT250
     FM190200 28003KT P6SM SKC=

USA.gov is the U.S. government's official web portal to all federal, state and local government web resources and services.